KCCB/CCB METAR and TAF weather

Enter ICAO airport designator
Station Type Date Time Source
KCCB METAR 2020/07/06 20:15 UTC NOAA

KCCB 062015Z AUTO 24011KT 10SM CLR 33/09 A2991 RMK AO2


Station Type Date Time Source
KCCB Decoded METAR 2020/07/06 20:15 UTC NOAA

Station name not available
Jul 06, 2020 - 04:15 PM EDT / 2020.07.06 2015 UTC
Wind: from the WSW (240 degrees) at 13 MPH (11 KT):0
Visibility: 10 mile(s):0
Sky conditions: clear
Temperature: 91 F (33 C)
Dew Point: 48 F (9 C)
Relative Humidity: 22%
Pressure (altimeter): 29.91 in. Hg (1012 hPa)
ob: KCCB 062015Z AUTO 24011KT 10SM CLR 33/09 A2991 RMK AO2
cycle: 20

Station Type Date Time Source
KCCB TAF UTC NOAA

Error!

Example: see airport list